Time;durP1;ratioP1;P1;durP2;ratioP2;P2;SDS_P1;SDS_P2;PMS_P1;PMS_P2;Temp;Humidity;BMP_temperature;BMP_pressure;BME280_temperature;BME280_humidity;BME280_pressure;Samples;Min_cycle;Max_cycle;Signal;HPM_P1;HPM_P2
2022/06/25 00:01:27;;;;;;;5.97;4.80;;;17.80;99.90;;;;;;5068131;28;20055;-61
2022/06/25 00:03:53;;;;;;;5.20;4.50;;;17.70;99.90;;;;;;5068673;28;20383;-61
2022/06/25 00:06:19;;;;;;;5.13;4.63;;;17.70;99.90;;;;;;5068232;28;20472;-61
2022/06/25 00:08:46;;;;;;;7.22;4.57;;;17.70;99.90;;;;;;5070627;28;20098;-61
2022/06/25 00:12:31;;;;;;;5.88;4.50;;;17.70;99.90;;;;;;5066742;28;20051;-61
2022/06/25 00:14:03;;;;;;;5.07;4.43;;;17.70;99.90;;;;;;5065909;28;20100;-61
2022/06/25 00:16:29;;;;;;;6.18;4.80;;;17.70;99.90;;;;;;5068660;28;20079;-61
2022/06/25 00:18:54;;;;;;;5.78;3.83;;;17.70;99.90;;;;;;5067450;28;20020;-61
2022/06/25 00:21:20;;;;;;;4.47;4.07;;;17.70;99.90;;;;;;5066975;28;20033;-61
2022/06/25 00:23:45;;;;;;;9.63;4.68;;;17.60;99.90;;;;;;5067815;28;20474;-62
2022/06/25 00:26:11;;;;;;;5.93;4.40;;;17.60;99.90;;;;;;5070181;28;20032;-61
2022/06/25 00:28:36;;;;;;;4.22;3.83;;;17.60;99.90;;;;;;5068552;28;20024;-61
2022/06/25 00:31:02;;;;;;;4.40;3.90;;;17.60;99.90;;;;;;5068014;28;20046;-62
2022/06/25 00:33:27;;;;;;;4.78;3.90;;;17.60;99.90;;;;;;5068209;28;20017;-61
2022/06/25 00:35:53;;;;;;;4.70;4.20;;;17.50;99.90;;;;;;5067704;28;20062;-61
2022/06/25 00:38:18;;;;;;;4.30;3.88;;;17.50;99.90;;;;;;5069844;28;20056;-61
2022/06/25 00:40:45;;;;;;;7.45;4.57;;;17.50;99.90;;;;;;5067721;28;20102;-61
2022/06/25 00:43:10;;;;;;;4.68;4.28;;;17.50;99.90;;;;;;5067812;28;20035;-62
2022/06/25 00:45:36;;;;;;;5.13;4.05;;;17.40;99.90;;;;;;5067744;28;20036;-62
2022/06/25 00:48:01;;;;;;;5.97;4.43;;;17.50;99.90;;;;;;5068732;28;20025;-61
2022/06/25 00:50:27;;;;;;;4.97;4.47;;;17.50;99.90;;;;;;5068133;28;20481;-61
2022/06/25 00:52:56;;;;;;;4.00;3.60;;;17.50;99.90;;;;;;5066701;28;20099;-61
2022/06/25 00:55:25;;;;;;;4.20;3.80;;;17.40;99.90;;;;;;5065728;28;20052;-61
2022/06/25 00:57:52;;;;;;;5.45;4.25;;;17.40;99.90;;;;;;5068418;28;20057;-61
2022/06/25 01:00:18;;;;;;;5.45;4.20;;;17.40;99.90;;;;;;5068413;28;20025;-61
2022/06/25 01:02:44;;;;;;;5.05;4.05;;;17.40;99.90;;;;;;5066058;28;20032;-61
2022/06/25 01:05:15;;;;;;;5.40;4.00;;;17.40;99.90;;;;;;5068961;28;20029;-62
2022/06/25 01:07:44;;;;;;;6.28;4.72;;;17.40;99.90;;;;;;5067898;28;20112;-61
2022/06/25 01:10:12;;;;;;;5.18;4.43;;;17.30;99.90;;;;;;5067605;28;20024;-61
2022/06/25 01:12:37;;;;;;;4.53;4.00;;;17.30;99.90;;;;;;5065381;28;20021;-61
2022/06/25 01:15:05;;;;;;;7.07;4.43;;;17.20;99.90;;;;;;5069611;28;20017;-61
2022/06/25 01:17:36;;;;;;;4.97;4.13;;;17.30;99.90;;;;;;5068143;28;20040;-62
2022/06/25 01:20:05;;;;;;;4.85;3.97;;;17.20;99.90;;;;;;5069151;28;20028;-61
2022/06/25 01:22:33;;;;;;;4.72;4.07;;;17.30;99.90;;;;;;5064450;28;20037;-61
2022/06/25 01:24:59;;;;;;;5.75;4.38;;;17.30;99.90;;;;;;5068933;28;20044;-61
2022/06/25 01:27:25;;;;;;;5.82;4.30;;;17.20;99.90;;;;;;5066708;28;20021;-61
2022/06/25 01:29:51;;;;;;;5.00;3.63;;;17.20;99.90;;;;;;5067127;28;20024;-61
2022/06/25 01:32:16;;;;;;;4.95;4.15;;;17.20;99.90;;;;;;5066210;28;20023;-61
2022/06/25 01:34:42;;;;;;;5.93;4.28;;;17.10;99.90;;;;;;5068256;28;20028;-61
2022/06/25 01:37:08;;;;;;;4.13;3.70;;;17.10;99.90;;;;;;5067298;28;20048;-62
2022/06/25 01:39:33;;;;;;;8.15;5.05;;;17.00;99.90;;;;;;5070446;28;20099;-61
2022/06/25 01:41:59;;;;;;;4.90;4.40;;;17.10;99.90;;;;;;5067425;28;20114;-61
2022/06/25 01:44:24;;;;;;;4.93;4.40;;;17.10;99.90;;;;;;5069110;28;20537;-61
2022/06/25 01:46:50;;;;;;;6.68;4.57;;;17.00;99.90;;;;;;5068440;28;20067;-61
2022/06/25 01:49:16;;;;;;;4.75;4.20;;;17.10;99.90;;;;;;5067189;28;20472;-61
2022/06/25 01:51:41;;;;;;;4.57;3.90;;;17.00;99.90;;;;;;5067846;28;20090;-61
2022/06/25 01:54:07;;;;;;;4.70;4.28;;;17.00;99.90;;;;;;5066482;28;20103;-61
2022/06/25 01:56:32;;;;;;;5.07;4.30;;;17.00;99.90;;;;;;5066324;28;20320;-62
2022/06/25 01:58:58;;;;;;;4.85;4.13;;;17.00;99.90;;;;;;5068291;28;20032;-61
2022/06/25 02:01:24;;;;;;;6.00;3.65;;;16.90;99.90;;;;;;5069939;28;20025;-61
2022/06/25 02:03:50;;;;;;;4.50;4.03;;;16.90;99.90;;;;;;5067204;28;20025;-61
2022/06/25 02:06:15;;;;;;;4.53;3.85;;;17.00;99.90;;;;;;5068548;28;20037;-62
2022/06/25 02:08:42;;;;;;;5.20;4.15;;;16.90;99.90;;;;;;5065658;28;20058;-61
2022/06/25 02:11:09;;;;;;;5.43;3.85;;;16.90;99.90;;;;;;5064461;28;20020;-61
2022/06/25 02:13:34;;;;;;;4.20;3.78;;;16.90;99.90;;;;;;5067974;28;20567;-62
2022/06/25 02:16:01;;;;;;;4.10;3.67;;;16.90;99.90;;;;;;5066823;28;20059;-61
2022/06/25 02:18:27;;;;;;;5.65;4.40;;;16.80;99.90;;;;;;5066813;28;20082;-61
2022/06/25 02:20:53;;;;;;;4.57;3.75;;;16.80;99.90;;;;;;5069921;28;20078;-61
2022/06/25 02:23:20;;;;;;;4.57;4.18;;;16.80;99.90;;;;;;5063431;28;20032;-61
2022/06/25 02:25:45;;;;;;;4.63;4.00;;;16.80;99.90;;;;;;5067557;28;20111;-61
2022/06/25 02:28:12;;;;;;;4.40;4.00;;;16.80;99.90;;;;;;5082186;28;20021;-60
2022/06/25 02:30:38;;;;;;;7.05;4.10;;;16.70;99.90;;;;;;5065695;28;20097;-61
2022/06/25 02:33:07;;;;;;;5.07;3.90;;;16.70;99.90;;;;;;5064545;28;20068;-61
2022/06/25 02:35:33;;;;;;;6.82;4.50;;;16.70;99.90;;;;;;5067836;28;20483;-61
2022/06/25 02:37:58;;;;;;;4.68;3.65;;;16.70;99.90;;;;;;5066935;28;20028;-61
2022/06/25 02:40:24;;;;;;;5.45;3.75;;;16.70;99.90;;;;;;5065350;28;20025;-61
2022/06/25 02:42:49;;;;;;;4.60;4.20;;;16.60;99.90;;;;;;5066520;28;20417;-61
2022/06/25 02:45:15;;;;;;;7.57;3.88;;;16.60;99.90;;;;;;5067482;28;20067;-61
2022/06/25 02:47:41;;;;;;;3.85;3.53;;;16.60;99.90;;;;;;5068192;28;20052;-61
2022/06/25 02:50:07;;;;;;;5.45;4.03;;;16.50;99.90;;;;;;5067479;28;20028;-61
2022/06/25 02:52:40;;;;;;;4.50;3.90;;;16.50;99.90;;;;;;5064217;28;20059;-61
2022/06/25 02:55:07;;;;;;;4.63;3.80;;;16.60;99.90;;;;;;5064679;28;20106;-61
2022/06/25 03:00:27;;;;;;;6.97;4.15;;;16.50;99.90;;;;;;4983207;28;20036;-60
2022/06/25 03:02:52;;;;;;;4.10;3.45;;;16.50;99.90;;;;;;5068072;28;20025;-61
2022/06/25 03:05:18;;;;;;;3.60;3.10;;;16.50;99.90;;;;;;5065989;28;20034;-61
2022/06/25 03:07:44;;;;;;;4.82;3.42;;;16.50;99.90;;;;;;5049662;28;20035;-61
2022/06/25 03:10:10;;;;;;;5.65;3.40;;;16.50;99.90;;;;;;5065614;28;20044;-61
2022/06/25 03:12:35;;;;;;;3.75;3.15;;;16.50;99.90;;;;;;5064980;28;20028;-61
2022/06/25 03:15:01;;;;;;;5.43;3.45;;;16.60;99.90;;;;;;5066640;28;20024;-61
2022/06/25 03:17:28;;;;;;;5.82;2.90;;;16.60;99.90;;;;;;5064559;28;20036;-61
2022/06/25 03:19:54;;;;;;;5.07;3.50;;;16.70;99.90;;;;;;5097543;28;20035;-61
2022/06/25 03:22:20;;;;;;;4.40;2.97;;;16.60;99.90;;;;;;5067089;28;20029;-61
2022/06/25 03:24:46;;;;;;;3.72;2.75;;;16.60;99.90;;;;;;5066829;28;20139;-61
2022/06/25 03:27:11;;;;;;;4.03;3.25;;;16.60;99.90;;;;;;5066055;28;20111;-61
2022/06/25 03:29:37;;;;;;;3.92;2.80;;;16.60;99.90;;;;;;5065348;28;20029;-60
2022/06/25 03:32:03;;;;;;;5.78;3.30;;;16.60;99.90;;;;;;5066576;28;20029;-61
2022/06/25 03:34:28;;;;;;;4.88;3.30;;;16.50;99.90;;;;;;5066906;28;20032;-60
2022/06/25 03:36:54;;;;;;;4.00;2.85;;;16.50;99.90;;;;;;5069862;28;20043;-61
2022/06/25 03:39:19;;;;;;;3.75;2.60;;;16.60;99.90;;;;;;5069425;28;20025;-60
2022/06/25 03:41:45;;;;;;;3.53;3.00;;;16.50;99.90;;;;;;5071072;28;20031;-61
2022/06/25 03:44:11;;;;;;;5.45;3.08;;;16.50;99.90;;;;;;5071142;28;20035;-60
2022/06/25 03:46:55;;;;;;;4.90;2.95;;;16.50;99.90;;;;;;5069620;28;20051;-61
2022/06/25 03:49:20;;;;;;;6.80;3.78;;;16.50;99.90;;;;;;5069339;28;20533;-60
2022/06/25 03:51:46;;;;;;;5.55;2.95;;;16.50;99.90;;;;;;5069394;28;20021;-61
2022/06/25 03:54:11;;;;;;;5.95;2.85;;;16.50;99.90;;;;;;5084581;28;20024;-60
2022/06/25 03:56:37;;;;;;;7.03;3.13;;;16.50;99.90;;;;;;5067534;28;20114;-61
2022/06/25 03:59:03;;;;;;;4.75;3.05;;;16.50;99.90;;;;;;5069743;28;20027;-61
2022/06/25 04:01:28;;;;;;;3.78;3.20;;;16.50;99.90;;;;;;5069175;28;20036;-61
2022/06/25 04:03:54;;;;;;;4.40;3.22;;;16.50;99.90;;;;;;5069818;28;20029;-60
2022/06/25 04:06:19;;;;;;;8.73;3.85;;;16.50;99.90;;;;;;5068552;28;20403;-60
2022/06/25 04:08:45;;;;;;;5.75;3.67;;;16.50;99.90;;;;;;5067603;28;20040;-61
2022/06/25 04:11:11;;;;;;;7.82;4.55;;;16.50;99.90;;;;;;5067943;28;20028;-61
2022/06/25 04:13:36;;;;;;;7.65;4.15;;;16.50;99.90;;;;;;5070105;28;20051;-60
2022/06/25 04:16:02;;;;;;;5.55;4.00;;;16.50;99.90;;;;;;5067854;28;20020;-60
2022/06/25 04:18:27;;;;;;;5.68;4.53;;;16.50;99.90;;;;;;5068704;28;20511;-60
2022/06/25 04:20:53;;;;;;;4.72;4.22;;;16.60;99.90;;;;;;5067436;28;20033;-61
2022/06/25 04:23:18;;;;;;;6.78;4.70;;;16.60;99.90;;;;;;5069515;28;20028;-61
2022/06/25 04:25:44;;;;;;;6.53;4.75;;;16.60;99.90;;;;;;5067813;28;20047;-61
2022/06/25 04:30:54;;;;;;;6.38;4.40;;;16.70;99.90;;;;;;5068292;28;20098;-61
2022/06/25 04:33:19;;;;;;;8.93;5.05;;;16.70;99.90;;;;;;5069388;28;20059;-61
2022/06/25 04:35:45;;;;;;;7.70;4.53;;;16.80;99.90;;;;;;5068894;28;20095;-61
2022/06/25 04:38:10;;;;;;;4.90;4.38;;;16.80;99.90;;;;;;5065853;28;20028;-61
2022/06/25 04:40:36;;;;;;;7.05;4.88;;;16.90;99.90;;;;;;5070243;28;20095;-60
2022/06/25 04:43:01;;;;;;;5.70;4.72;;;17.00;99.90;;;;;;5068417;28;20033;-60
2022/06/25 04:45:27;;;;;;;11.75;3.90;;;17.00;99.90;;;;;;5067978;28;20032;-61
2022/06/25 04:47:59;;;;;;;7.97;4.03;;;17.00;99.90;;;;;;5069830;28;20067;-61
2022/06/25 04:50:25;;;;;;;7.30;4.45;;;17.10;99.90;;;;;;5068371;28;20029;-61
2022/06/25 04:52:50;;;;;;;6.57;4.45;;;17.10;99.90;;;;;;5069935;28;20411;-61
2022/06/25 04:55:16;;;;;;;4.70;4.05;;;17.20;99.90;;;;;;5065484;28;20025;-61
2022/06/25 04:57:42;;;;;;;5.55;4.15;;;17.30;99.90;;;;;;5066526;28;20381;-60
2022/06/25 05:00:08;;;;;;;4.78;4.28;;;17.30;99.90;;;;;;5068587;28;20476;-60
2022/06/25 05:02:33;;;;;;;5.65;3.80;;;17.30;99.90;;;;;;5068718;28;20033;-60
2022/06/25 05:04:59;;;;;;;4.85;4.45;;;17.40;99.90;;;;;;5065459;28;20054;-61
2022/06/25 05:07:25;;;;;;;4.72;4.25;;;17.40;99.90;;;;;;5067839;28;20020;-60
2022/06/25 05:09:50;;;;;;;5.47;4.10;;;17.40;99.90;;;;;;5066876;28;20024;-60
2022/06/25 05:13:11;;;;;;;7.25;4.50;;;17.40;99.90;;;;;;5068755;28;20017;-63
2022/06/25 05:15:01;;;;;;;6.20;4.20;;;17.50;99.90;;;;;;5069498;28;20032;-61
2022/06/25 05:17:28;;;;;;;4.60;4.20;;;17.50;99.90;;;;;;5065988;28;20033;-60
2022/06/25 05:20:15;;;;;;;;;;;;;;;;;;;;;
2022/06/25 05:22:41;;;;;;;6.78;4.35;;;17.70;99.90;;;;;;5069301;28;20496;-61
2022/06/25 05:25:07;;;;;;;4.30;3.80;;;17.80;99.90;;;;;;5066521;28;20032;-61
2022/06/25 05:27:33;;;;;;;6.65;4.03;;;17.90;99.90;;;;;;5066622;28;20027;-61
2022/06/25 05:29:58;;;;;;;5.72;4.10;;;17.90;99.90;;;;;;5066096;28;20020;-60
2022/06/25 05:32:24;;;;;;;5.55;4.03;;;17.90;99.90;;;;;;5068248;28;20384;-61
2022/06/25 05:34:50;;;;;;;7.85;4.90;;;18.00;99.90;;;;;;5065768;28;20032;-61
2022/06/25 05:37:15;;;;;;;4.95;4.30;;;18.00;99.90;;;;;;5066734;28;20028;-62
2022/06/25 05:39:41;;;;;;;7.05;3.70;;;17.90;99.90;;;;;;5065860;28;20551;-61
2022/06/25 05:42:07;;;;;;;7.22;4.30;;;17.90;99.90;;;;;;5068954;28;20025;-60
2022/06/25 05:44:32;;;;;;;4.25;3.83;;;18.00;99.90;;;;;;5067326;28;20467;-61
2022/06/25 05:46:58;;;;;;;6.10;4.30;;;18.00;99.90;;;;;;5068982;28;20029;-61
2022/06/25 05:49:24;;;;;;;4.40;4.00;;;18.00;99.90;;;;;;5065577;28;20444;-62
2022/06/25 05:51:49;;;;;;;5.15;3.92;;;18.00;99.90;;;;;;5050930;28;20021;-61
2022/06/25 05:54:16;;;;;;;6.25;4.05;;;18.10;99.90;;;;;;5066807;28;20044;-61
2022/06/25 05:56:42;;;;;;;4.32;3.08;;;18.20;99.90;;;;;;5070073;28;20847;-60
2022/06/25 05:59:07;;;;;;;4.53;3.70;;;18.30;99.90;;;;;;5091819;28;20032;-61
2022/06/25 06:01:33;;;;;;;6.53;3.35;;;18.30;99.90;;;;;;5068677;28;20032;-62
2022/06/25 06:03:58;;;;;;;4.00;3.33;;;18.30;99.90;;;;;;5080400;28;20027;-61
2022/06/25 06:06:24;;;;;;;5.32;2.78;;;18.40;99.90;;;;;;5072307;28;20565;-60
2022/06/25 06:08:50;;;;;;;5.40;3.80;;;18.50;99.90;;;;;;5091376;28;20087;-61
2022/06/25 06:11:15;;;;;;;3.92;2.95;;;18.60;99.90;;;;;;5058770;28;20074;-61
2022/06/25 06:13:41;;;;;;;7.35;3.20;;;18.70;99.90;;;;;;5065254;28;20431;-60
2022/06/25 06:16:07;;;;;;;3.75;3.15;;;18.80;99.90;;;;;;5070943;28;20103;-61
2022/06/25 06:18:32;;;;;;;4.18;2.88;;;18.80;99.90;;;;;;5078929;28;20020;-61
2022/06/25 06:20:58;;;;;;;5.55;3.45;;;18.90;99.90;;;;;;5079404;28;20404;-61
2022/06/25 06:23:23;;;;;;;2.72;2.30;;;19.00;99.90;;;;;;5083878;28;20051;-61
2022/06/25 06:25:49;;;;;;;4.60;2.45;;;19.00;99.90;;;;;;5064057;28;20028;-61
2022/06/25 06:28:23;;;;;;;3.40;2.30;;;19.10;99.90;;;;;;5063704;28;20107;-61
2022/06/25 06:30:48;;;;;;;5.97;3.10;;;19.20;99.90;;;;;;5065600;28;20558;-61
2022/06/25 06:33:14;;;;;;;6.57;3.00;;;19.30;99.90;;;;;;5063879;28;20021;-61
2022/06/25 06:35:40;;;;;;;4.25;2.28;;;19.40;99.90;;;;;;5072280;28;20028;-61
2022/06/25 06:38:05;;;;;;;7.93;2.75;;;19.50;99.90;;;;;;5061465;28;20074;-60
2022/06/25 06:40:31;;;;;;;5.35;1.80;;;19.60;99.90;;;;;;5056106;28;20074;-61
2022/06/25 06:42:56;;;;;;;2.42;2.00;;;19.70;99.90;;;;;;5062492;28;20481;-61
2022/06/25 06:45:22;;;;;;;5.70;1.60;;;19.70;98.80;;;;;;5064623;28;20503;-61
2022/06/25 06:47:55;;;;;;;3.20;1.70;;;19.70;98.60;;;;;;5071879;28;20166;-60
2022/06/25 06:50:21;;;;;;;3.42;1.50;;;19.80;98.70;;;;;;5069310;28;20357;-61
2022/06/25 06:52:46;;;;;;;5.55;1.70;;;19.80;98.60;;;;;;5072026;28;20027;-61
2022/06/25 06:55:12;;;;;;;2.28;1.42;;;19.90;98.70;;;;;;5077211;28;20035;-61
2022/06/25 06:57:37;;;;;;;5.78;1.67;;;19.90;98.50;;;;;;5077976;28;20502;-61
2022/06/25 07:00:06;;;;;;;3.55;1.35;;;19.90;98.20;;;;;;5077101;28;20051;-61
2022/06/25 07:02:32;;;;;;;2.30;1.25;;;19.90;98.10;;;;;;5061386;28;20029;-61
2022/06/25 07:04:57;;;;;;;3.08;1.10;;;19.90;98.00;;;;;;5064695;28;20527;-61
2022/06/25 07:07:23;;;;;;;2.28;1.17;;;20.00;98.00;;;;;;5064417;28;20103;-61
2022/06/25 07:09:49;;;;;;;3.08;1.33;;;20.00;97.90;;;;;;5066745;28;20053;-61
2022/06/25 07:12:15;;;;;;;3.28;1.10;;;20.00;97.80;;;;;;5092569;28;20051;-61
2022/06/25 07:14:40;;;;;;;2.55;1.30;;;20.10;97.60;;;;;;5086121;28;20391;-61
2022/06/25 07:17:06;;;;;;;3.45;1.45;;;20.10;97.10;;;;;;5078237;28;20456;-61
2022/06/25 07:19:31;;;;;;;4.68;1.15;;;20.10;96.80;;;;;;5074688;28;20029;-61
2022/06/25 07:21:57;;;;;;;3.40;1.40;;;20.10;96.80;;;;;;5079871;28;20028;-61
2022/06/25 07:24:23;;;;;;;2.97;1.13;;;20.20;96.90;;;;;;5069776;28;20086;-61
2022/06/25 07:26:49;;;;;;;2.33;1.20;;;20.10;96.60;;;;;;5068637;28;20048;-61
2022/06/25 07:29:14;;;;;;;3.40;1.70;;;20.20;96.60;;;;;;5068762;28;20056;-61
2022/06/25 07:31:40;;;;;;;4.50;1.60;;;20.20;96.40;;;;;;5074988;28;20028;-61
2022/06/25 07:34:05;;;;;;;4.20;1.33;;;20.10;96.40;;;;;;5075916;28;20024;-61
2022/06/25 07:36:31;;;;;;;4.00;1.88;;;20.10;96.10;;;;;;5082347;28;20028;-61
2022/06/25 07:39:08;;;;;;;6.13;1.45;;;20.20;96.30;;;;;;5081926;28;20024;-61
2022/06/25 07:41:33;;;;;;;2.13;1.80;;;20.30;96.30;;;;;;5085191;28;20048;-61
2022/06/25 07:43:59;;;;;;;2.92;1.40;;;20.50;96.00;;;;;;5083539;28;20020;-61
2022/06/25 07:46:24;;;;;;;4.00;1.60;;;20.60;95.70;;;;;;5081662;28;20024;-61
2022/06/25 07:48:50;;;;;;;4.90;1.17;;;20.70;95.40;;;;;;5083078;28;20032;-61
2022/06/25 07:53:59;;;;;;;3.05;1.58;;;20.70;95.20;;;;;;5073278;28;20023;-61
2022/06/25 07:56:25;;;;;;;2.40;1.40;;;20.60;94.70;;;;;;5073457;28;20107;-61
2022/06/25 07:58:50;;;;;;;2.22;1.42;;;20.70;94.90;;;;;;5071975;28;20502;-61
2022/06/25 08:01:16;;;;;;;2.03;1.40;;;20.70;94.90;;;;;;5085637;28;20032;-61
2022/06/25 08:03:42;;;;;;;3.47;1.38;;;20.80;94.80;;;;;;5084650;28;20028;-61
2022/06/25 08:06:08;;;;;;;3.83;1.60;;;20.90;94.80;;;;;;5081181;28;20054;-61
2022/06/25 08:08:34;;;;;;;3.58;1.30;;;21.10;95.20;;;;;;5069570;28;20059;-62
2022/06/25 08:10:59;;;;;;;2.92;1.15;;;21.10;94.70;;;;;;5082329;28;20016;-61
2022/06/25 08:13:26;;;;;;;3.40;1.08;;;21.20;95.00;;;;;;5079207;28;20021;-61
2022/06/25 08:15:52;;;;;;;2.72;1.40;;;21.30;94.80;;;;;;5079518;28;20020;-61
2022/06/25 08:18:19;;;;;;;1.65;1.23;;;21.30;93.90;;;;;;5080007;28;20027;-61
2022/06/25 08:20:45;;;;;;;2.05;0.90;;;21.30;94.20;;;;;;5087204;28;20029;-61
2022/06/25 08:23:10;;;;;;;2.13;1.20;;;21.20;93.70;;;;;;5073840;28;20028;-61
2022/06/25 08:25:36;;;;;;;3.08;1.55;;;21.20;93.60;;;;;;5073223;28;20036;-61
2022/06/25 08:28:02;;;;;;;3.63;1.65;;;21.20;93.70;;;;;;5071865;28;20028;-61
2022/06/25 08:30:30;;;;;;;4.78;2.25;;;21.30;93.90;;;;;;5074585;28;20063;-61
2022/06/25 08:32:56;;;;;;;3.78;1.40;;;21.20;93.90;;;;;;5063290;28;20028;-61
2022/06/25 08:35:22;;;;;;;3.08;1.23;;;21.30;93.60;;;;;;5057220;28;20021;-61
2022/06/25 08:37:48;;;;;;;2.75;1.30;;;21.30;93.50;;;;;;5061823;28;20074;-61
2022/06/25 08:40:18;;;;;;;2.70;1.38;;;21.20;93.30;;;;;;5069268;28;20070;-61
2022/06/25 08:42:44;;;;;;;1.67;1.20;;;21.10;93.90;;;;;;5059855;28;20499;-61
2022/06/25 08:45:17;;;;;;;3.00;1.23;;;21.20;94.10;;;;;;5066382;28;20021;-61
2022/06/25 08:47:52;;;;;;;2.50;1.33;;;21.20;93.90;;;;;;5065120;28;20108;-61
2022/06/25 08:50:21;;;;;;;2.60;1.17;;;21.20;93.70;;;;;;5068901;28;20048;-61
2022/06/25 08:52:48;;;;;;;3.05;1.10;;;21.20;93.80;;;;;;5064656;28;20373;-61
2022/06/25 08:58:21;;;;;;;4.20;1.20;;;21.10;94.10;;;;;;5065894;28;20044;-61
2022/06/25 09:00:46;;;;;;;2.33;0.95;;;21.10;94.20;;;;;;5065971;28;20022;-61
2022/06/25 09:03:12;;;;;;;2.20;0.95;;;21.10;94.50;;;;;;5084216;28;20028;-61
2022/06/25 09:05:40;;;;;;;4.68;0.90;;;21.10;94.20;;;;;;5074581;28;20029;-61
2022/06/25 09:08:08;;;;;;;2.40;0.98;;;20.90;93.80;;;;;;5081919;28;20460;-61
2022/06/25 09:10:35;;;;;;;1.65;0.98;;;20.90;94.10;;;;;;5081600;28;20154;-63
2022/06/25 09:13:03;;;;;;;3.22;0.95;;;20.70;94.20;;;;;;5082866;28;20024;-61
2022/06/25 09:15:33;;;;;;;4.38;1.45;;;20.70;94.60;;;;;;5081515;28;20383;-61
2022/06/25 09:18:34;;;;;;;2.42;1.33;;;20.70;94.70;;;;;;5080778;28;20024;-61
2022/06/25 09:21:10;;;;;;;3.15;1.17;;;20.60;94.60;;;;;;5077294;28;20081;-61
2022/06/25 09:24:06;;;;;;;;;;;;;;;;;;;;;
2022/06/25 09:30:16;;;;;;;5.07;1.48;;;20.70;95.20;;;;;;5053012;28;20028;-61
2022/06/25 09:32:56;;;;;;;1.95;1.30;;;20.90;95.30;;;;;;5082657;28;20114;-61
2022/06/25 09:35:34;;;;;;;1.90;1.20;;;20.90;95.30;;;;;;5077250;28;20091;-61
2022/06/25 09:38:05;;;;;;;3.03;1.30;;;21.00;95.00;;;;;;5081386;28;20061;-62
2022/06/25 09:40:39;;;;;;;3.38;1.65;;;21.00;94.80;;;;;;5073543;28;20456;-61
2022/06/25 09:43:12;;;;;;;3.70;1.27;;;21.00;94.60;;;;;;5083193;28;20479;-61
2022/06/25 09:45:37;;;;;;;2.88;1.60;;;21.10;94.80;;;;;;5076678;28;20100;-61
2022/06/25 09:48:03;;;;;;;4.72;1.70;;;21.20;94.80;;;;;;5090499;28;20153;-61
2022/06/25 09:50:44;;;;;;;3.45;1.80;;;21.30;94.70;;;;;;5077796;28;20107;-61
2022/06/25 09:53:09;;;;;;;2.70;1.70;;;21.30;94.20;;;;;;5062100;28;20078;-61
2022/06/25 09:55:39;;;;;;;4.32;1.63;;;21.30;94.50;;;;;;5085375;28;20016;-61
2022/06/25 09:58:05;;;;;;;;;;;21.30;94.30;;;;;;5087856;28;20040;-61
2022/06/25 10:00:32;;;;;;;1.77;1.45;;;21.30;94.20;;;;;;5073906;28;20348;-61
2022/06/25 10:02:59;;;;;;;3.47;1.73;;;21.20;94.50;;;;;;5076699;28;20553;-61
2022/06/25 10:05:41;;;;;;;4.15;2.13;;;21.20;94.50;;;;;;5084548;28;20020;-61
2022/06/25 10:08:10;;;;;;;3.95;1.90;;;21.20;94.50;;;;;;5069146;28;20046;-61
2022/06/25 10:10:44;;;;;;;3.42;1.75;;;21.00;94.10;;;;;;5067073;28;20039;-61
2022/06/25 10:13:10;;;;;;;3.25;2.10;;;20.90;94.20;;;;;;5074725;28;20119;-61
2022/06/25 10:15:37;;;;;;;3.28;2.13;;;20.80;94.80;;;;;;5076883;28;20107;-61
2022/06/25 10:18:06;;;;;;;2.63;1.98;;;20.70;94.90;;;;;;5078672;28;20065;-61
2022/06/25 10:21:10;;;;;;;5.35;2.25;;;20.70;95.20;;;;;;5071844;28;20028;-61
2022/06/25 10:23:38;;;;;;;3.63;2.33;;;20.80;95.70;;;;;;5080528;28;20028;-62
2022/06/25 10:26:05;;;;;;;3.47;1.92;;;20.80;96.10;;;;;;5081699;28;20498;-61
2022/06/25 10:28:53;;;;;;;;;;;;;;;;;;;;;
2022/06/25 10:31:19;;;;;;;4.47;2.10;;;20.90;96.00;;;;;;5085885;28;20480;-61
2022/06/25 10:34:03;;;;;;;4.97;2.45;;;20.90;95.90;;;;;;5071314;28;20484;-61
2022/06/25 10:36:43;;;;;;;3.90;1.77;;;21.10;95.80;;;;;;5071531;28;20061;-61
2022/06/25 10:39:27;;;;;;;;;;;21.10;96.10;;;;;;5067561;28;20025;-61
2022/06/25 10:45:03;;;;;;;6.97;2.22;;;21.10;96.00;;;;;;5064923;28;20519;-61
2022/06/25 10:47:49;;;;;;;4.28;2.90;;;21.10;95.90;;;;;;5074315;28;20056;-61
2022/06/25 10:50:27;;;;;;;3.28;2.33;;;21.20;96.10;;;;;;5059980;28;20021;-61
2022/06/25 10:53:01;;;;;;;3.22;2.10;;;21.20;96.00;;;;;;5075725;28;20428;-61
2022/06/25 10:55:38;;;;;;;5.70;2.85;;;21.30;95.70;;;;;;5079740;28;20020;-62
2022/06/25 10:58:18;;;;;;;5.80;2.60;;;21.30;95.60;;;;;;5078541;28;20048;-61
2022/06/25 11:00:51;;;;;;;3.47;2.33;;;21.30;94.90;;;;;;5060420;28;20033;-61
2022/06/25 11:03:29;;;;;;;3.60;2.15;;;21.30;95.40;;;;;;5072427;28;20545;-61
2022/06/25 11:06:20;;;;;;;4.00;2.03;;;21.30;94.80;;;;;;5063318;28;20020;-61
2022/06/25 11:08:47;;;;;;;3.00;1.90;;;21.30;94.60;;;;;;5081324;28;20103;-61
2022/06/25 11:11:23;;;;;;;5.28;2.17;;;21.40;94.80;;;;;;5069194;28;20104;-61
2022/06/25 11:13:48;;;;;;;4.53;2.10;;;21.50;95.20;;;;;;5067113;28;20074;-61
2022/06/25 11:16:15;;;;;;;4.07;1.92;;;21.80;95.00;;;;;;5081131;28;20032;-61
2022/06/25 11:18:56;;;;;;;5.03;1.50;;;22.00;94.90;;;;;;5094793;28;20448;-61
2022/06/25 11:21:27;;;;;;;3.38;1.50;;;22.50;94.20;;;;;;5093458;28;20518;-61
2022/06/25 11:24:04;;;;;;;3.63;1.83;;;22.80;93.30;;;;;;5091112;28;20091;-61
2022/06/25 11:29:22;;;;;;;3.08;1.48;;;23.20;91.70;;;;;;5081339;28;20031;-61
2022/06/25 11:32:03;;;;;;;2.22;1.20;;;23.30;91.40;;;;;;5078342;28;20131;-61
2022/06/25 11:34:29;;;;;;;3.90;1.98;;;23.30;90.90;;;;;;5074306;28;20024;-61
2022/06/25 11:37:00;;;;;;;3.40;1.48;;;23.10;90.00;;;;;;5074958;28;20040;-61
2022/06/25 11:39:28;;;;;;;3.58;1.17;;;22.90;90.50;;;;;;5080446;28;20024;-61
2022/06/25 11:41:54;;;;;;;3.38;1.42;;;22.80;90.70;;;;;;5080867;28;20366;-62
2022/06/25 11:44:25;;;;;;;4.32;1.50;;;22.90;90.70;;;;;;5082075;28;20487;-61
2022/06/25 11:46:53;;;;;;;2.97;1.25;;;23.00;90.50;;;;;;5085049;28;20031;-61
2022/06/25 11:49:21;;;;;;;2.70;1.20;;;23.10;90.10;;;;;;5079447;28;20017;-61
2022/06/25 11:51:52;;;;;;;3.30;1.20;;;23.20;89.00;;;;;;5086686;28;20084;-62
2022/06/25 11:54:26;;;;;;;2.97;1.02;;;23.20;89.30;;;;;;5079462;28;20020;-61
2022/06/25 11:56:55;;;;;;;2.83;1.45;;;23.50;89.70;;;;;;5082001;28;20126;-61
2022/06/25 11:59:29;;;;;;;2.17;1.27;;;23.60;90.00;;;;;;5082011;28;20024;-61
2022/06/25 12:01:56;;;;;;;3.53;1.67;;;23.70;89.50;;;;;;5084232;28;20046;-62
2022/06/25 12:04:22;;;;;;;2.53;1.33;;;23.60;88.30;;;;;;5082856;28;20036;-62
2022/06/25 12:06:48;;;;;;;4.05;1.50;;;23.70;89.10;;;;;;5078112;28;20107;-61
2022/06/25 12:09:19;;;;;;;3.72;1.17;;;23.70;87.80;;;;;;5076787;28;20073;-61
2022/06/25 12:11:52;;;;;;;1.95;1.48;;;23.70;89.10;;;;;;5071591;28;20127;-61
2022/06/25 12:14:31;;;;;;;3.58;1.48;;;23.80;88.30;;;;;;5072311;28;20103;-61
2022/06/25 12:16:58;;;;;;;1.63;1.38;;;23.80;87.20;;;;;;5062830;28;20017;-61
2022/06/25 12:19:42;;;;;;;3.08;0.90;;;24.00;87.10;;;;;;5083609;28;20407;-62
2022/06/25 12:22:21;;;;;;;2.22;0.90;;;24.20;86.20;;;;;;5087023;28;20035;-62
2022/06/25 12:24:47;;;;;;;2.67;0.80;;;24.20;85.20;;;;;;5068495;28;20079;-62
2022/06/25 12:27:13;;;;;;;1.35;0.80;;;24.10;83.70;;;;;;5069801;28;20033;-61
2022/06/25 12:29:38;;;;;;;1.85;0.80;;;24.10;84.20;;;;;;5068968;28;20384;-61
2022/06/25 12:32:04;;;;;;;2.80;0.77;;;24.00;83.80;;;;;;5069483;28;20358;-62
2022/06/25 12:34:30;;;;;;;1.60;0.60;;;24.10;83.50;;;;;;5076222;28;20110;-61
2022/06/25 12:36:56;;;;;;;2.42;0.75;;;24.20;82.80;;;;;;5086029;28;20031;-62
2022/06/25 12:39:35;;;;;;;1.45;0.70;;;24.30;82.00;;;;;;5072205;28;20028;-62
2022/06/25 12:42:09;;;;;;;2.15;0.60;;;24.50;83.40;;;;;;5069264;28;20037;-61
2022/06/25 12:44:49;;;;;;;1.55;0.60;;;24.60;80.90;;;;;;5073554;28;20024;-62
2022/06/25 12:47:16;;;;;;;1.33;0.50;;;24.80;80.40;;;;;;5071716;28;20553;-62
2022/06/25 12:49:59;;;;;;;1.85;0.60;;;24.80;79.10;;;;;;5089247;28;20036;-62
2022/06/25 12:52:36;;;;;;;0.80;0.50;;;24.90;79.60;;;;;;5062172;28;20021;-62
2022/06/25 12:55:03;;;;;;;3.05;0.50;;;25.10;80.10;;;;;;5076205;28;20020;-61
2022/06/25 12:57:30;;;;;;;1.15;0.65;;;25.30;77.40;;;;;;5086559;28;20040;-62
2022/06/25 12:59:57;;;;;;;1.48;0.50;;;25.30;75.40;;;;;;5079231;28;20389;-62
2022/06/25 13:02:23;;;;;;;2.05;0.50;;;25.10;75.90;;;;;;5078521;28;20036;-61
2022/06/25 13:04:50;;;;;;;1.02;0.50;;;25.00;76.00;;;;;;5060442;28;20016;-61
2022/06/25 13:07:35;;;;;;;1.40;0.50;;;24.80;76.50;;;;;;5065056;28;20056;-62
2022/06/25 13:10:01;;;;;;;0.77;0.40;;;24.70;77.20;;;;;;5082325;28;20036;-61
2022/06/25 13:12:28;;;;;;;1.13;0.50;;;24.50;76.90;;;;;;5081214;28;20029;-62
2022/06/25 13:14:54;;;;;;;1.98;0.50;;;24.50;76.90;;;;;;5084509;28;20024;-61
2022/06/25 13:17:20;;;;;;;1.33;0.50;;;24.40;77.40;;;;;;5086745;28;20605;-61